Delta Virtual Airport Information Service

Red Dog Airport

ICAO: PADG Country: United States
Latitude: 68.0321 Longitude: -162.899
Latest Arrival : (-) Latest Departure : (-)


WX CaptureLIVE
Data provided by noaa.gov | Fetched at 10:10:38

METAR : PADG 222257Z 08006KT 10SM -SN OVC034 M09/M13 A2939

TAF :


Runway Data for PADG
Data provided by openaviationdata.com

Runway ID Mag Var Hdg Length Elevation Surface ILS Freq ILS Id ILS Slope

Red Dog Airport, United States
Use only for reference purposes



Not for navigational purposes.